Flight Track Log - Related Links

Times and Time Zones

All times are in EDT time to prevent confusion due to time zone crossing. See the AER966 flight status page for this flight to view local times or setup timezone preferences in your user account.

Time Position Orientation Groundspeed Altitude Reporting Facility
EDT Latitude Longitude Course Direction KTS MPH feet Rate Location/Type
Sat 06:12:38 PM 57.2000 -170.1333 65° Northeast 130 150 3,200  Level Anchorage Center
Sat 06:13:38 PM 57.2167 -170.0667 65° Northeast 150 173 4,900 1,600 Climbing Anchorage Center
Sat 06:14:00 PM 57.3756 -169.5344 60° Northeast  Level Estimated
Sat 06:14:38 PM 57.2333 -169.9833 70° East 160 184 6,400  Level Anchorage Center
Sat 06:15:00 PM 57.4101 -169.4189 61° Northeast  Level Estimated
Sat 06:15:37 PM 57.2500 -169.9000 70° East 170 196 7,800  Level Anchorage Center
Sat 06:16:00 PM 57.4445 -169.3033 61° Northeast  Level Estimated
Sat 06:16:37 PM 57.2667 -169.8167 70° East 180 207 9,400  Level Anchorage Center
Sat 06:17:38 PM 57.2833 -169.7333 70° East 180 207 11,000 1,636 Climbing Anchorage Center
Sat 06:18:38 PM 57.3000 -169.6500 70° East 180 207 12,700 1,500 Climbing Anchorage Center
Sat 06:19:38 PM 57.3333 -169.5500 58° Northeast 190 219 14,000 1,250 Climbing Anchorage Center
Sat 06:20:38 PM 57.3500 -169.4500 73° East 210 242 15,200 1,300 Climbing Anchorage Center
Sat 06:21:38 PM 57.3667 -169.3500 73° East 210 242 16,600 1,250 Climbing Anchorage Center
Sat 06:22:38 PM 57.4000 -169.2500 58° Northeast 220 253 17,700 950 Climbing Anchorage Center
Sat 06:23:38 PM 57.4167 -169.1333 75° East 220 253 18,500 850 Climbing Anchorage Center
Sat 06:24:38 PM 57.4333 -169.0500 70° East 230 265 19,400 900 Climbing Anchorage Center
Sat 06:25:38 PM 57.4500 -168.9333 75° East 230 265 20,300 942 Climbing Anchorage Center
Sat 06:26:39 PM 57.4833 -168.8333 58° Northeast 240 276 21,300 900 Climbing Anchorage Center
Sat 06:27:38 PM 57.5000 -168.7167 75° East 230 265 22,100 857 Climbing Anchorage Center
Sat 06:28:38 PM 57.5333 -168.6000 62° Northeast 230 265 23,000 800 Climbing Anchorage Center
Sat 06:29:38 PM 57.5500 -168.5000 73° East 230 265 23,700 645 Climbing Anchorage Center
Sat 06:30:39 PM 57.5667 -168.3667 77° East 240 276 24,300 645 Climbing Anchorage Center
Sat 06:31:39 PM 57.6000 -168.2667 58° Northeast 240 276 25,000 350 Climbing Anchorage Center
Sat 06:32:39 PM 57.6167 -168.1333 77° East 250 288 25,000  Level Anchorage Center
Sat 06:33:39 PM 57.6500 -168.0000 65° Northeast 270 311 25,000  Level Anchorage Center
Sat 06:34:39 PM 57.6667 -167.8667 77° East 290 334 25,000  Level Anchorage Center
Sat 06:35:39 PM 57.7000 -167.7167 67° East 280 322 25,000  Level Anchorage Center
Sat 06:36:39 PM 57.7167 -167.5833 77° East 280 322 25,000  Level Anchorage Center
Sat 06:37:39 PM 57.7667 -167.4500 55° Northeast 290 334 25,000  Level Anchorage Center
Sat 06:38:39 PM 57.7833 -167.3000 78° East 290 334 25,000  Level Anchorage Center
Sat 06:39:39 PM 57.8167 -167.1500 67° East 290 334 25,000  Level Anchorage Center
Sat 06:40:39 PM 57.8333 -167.0167 77° East 280 322 25,000  Level Anchorage Center
Sat 06:41:39 PM 57.8667 -166.8667 67° East 290 334 25,000  Level Anchorage Center
Sat 06:42:39 PM 57.8833 -166.7333 77° East 280 322 25,000  Level Anchorage Center
Sat 06:43:39 PM 57.9167 -166.5833 67° East 280 322 25,000  Level Anchorage Center
Sat 06:44:39 PM 57.9333 -166.4500 77° East 280 322 25,000  Level Anchorage Center
Sat 06:45:40 PM 57.9667 -166.3167 65° Northeast 280 322 25,000  Level Anchorage Center
Sat 06:46:39 PM 57.9833 -166.1667 78° East 280 322 25,000  Level Anchorage Center
Sat 06:47:40 PM 58.0167 -166.0167 67° East 300 345 25,000  Level Anchorage Center
Sat 06:48:39 PM 58.0500 -165.8833 65° Northeast 280 322 25,000  Level Anchorage Center
Sat 06:49:40 PM 58.0667 -165.7333 78° East 280 322 25,000  Level Anchorage Center
Sat 06:50:40 PM 58.1000 -165.5833 67° East 280 322 25,000  Level Anchorage Center
Sat 06:51:40 PM 58.1167 -165.4500 77° East 280 322 25,000  Level Anchorage Center
Sat 06:52:40 PM 58.1500 -165.3000 67° East 280 322 25,000  Level Anchorage Center
Sat 06:53:40 PM 58.1667 -165.1500 78° East 290 334 25,000  Level Anchorage Center
Sat 06:54:40 PM 58.2000 -165.0167 65° Northeast 290 334 25,000  Level Anchorage Center
Sat 06:55:40 PM 58.2167 -164.8667 78° East 280 322 25,000  Level Anchorage Center
Sat 06:56:40 PM 58.2333 -164.7167 78° East 280 322 25,000  Level Anchorage Center
Sat 06:57:40 PM 58.2667 -164.5833 65° Northeast 270 311 25,000  Level Anchorage Center
Sat 06:58:40 PM 58.2833 -164.4333 78° East 290 334 25,000  Level Anchorage Center
Sat 06:59:40 PM 58.3167 -164.2833 67° East 280 322 25,000  Level Anchorage Center
Sat 07:01:16 PM 58.3500 -164.0500 75° East 280 322 25,000  Level Anchorage Center
Sat 07:02:16 PM 58.3667 -163.9000 78° East 280 322 25,000  Level Anchorage Center
Sat 07:03:16 PM 58.4000 -163.7667 64° Northeast 280 322 25,000  Level Anchorage Center
Sat 07:04:16 PM 58.4167 -163.6167 78° East 280 322 25,000  Level Anchorage Center
Sat 07:05:16 PM 58.4500 -163.4667 67° East 280 322 25,000  Level Anchorage Center
Sat 07:06:16 PM 58.4667 -163.3167 78° East 290 334 25,000  Level Anchorage Center
Sat 07:07:16 PM 58.4833 -163.1667 78° East 290 334 25,000  Level Anchorage Center
Sat 07:08:16 PM 58.5167 -163.0167 67° East 290 334 25,000  Level Anchorage Center
Sat 07:09:17 PM 58.5333 -162.8667 78° East 300 345 25,000  Level Anchorage Center
Sat 07:10:17 PM 58.5500 -162.7167 78° East 290 334 25,000  Level Anchorage Center
Sat 07:11:17 PM 58.5833 -162.5667 67° East 310 357 25,000  Level Anchorage Center
Sat 07:12:17 PM 58.6000 -162.4000 79° East 290 334 25,000  Level Anchorage Center
Sat 07:13:17 PM 58.6167 -162.2667 76° East 290 334 25,000  Level Anchorage Center
Sat 07:15:32 PM 58.6833 -161.9167 70° East 300 345 25,000  Level Anchorage Center
Sat 07:16:32 PM 58.7167 -161.7833 64° Northeast 280 322 25,000  Level Anchorage Center
Sat 07:17:33 PM 58.7500 -161.6333 67° East 290 334 25,000  Level Anchorage Center
Sat 07:18:33 PM 58.8000 -161.5000 54° Northeast 290 334 25,000  Level Anchorage Center
Sat 07:19:33 PM 58.8333 -161.3667 64° Northeast 290 334 25,000  Level Anchorage Center
Sat 07:20:33 PM 58.8667 -161.2333 64° Northeast 280 322 25,000  Level Anchorage Center
Sat 07:21:33 PM 58.9000 -161.0833 67° East 280 322 25,000  Level Anchorage Center
Sat 07:22:33 PM 58.9333 -160.9500 64° Northeast 290 334 25,000  Level Anchorage Center
Sat 07:23:33 PM 58.9667 -160.8000 67° East 290 334 25,000  Level Anchorage Center
Sat 07:24:33 PM 59.0167 -160.6667 54° Northeast 300 345 25,000  Level Anchorage Center
Sat 07:25:33 PM 59.0500 -160.5333 64° Northeast 290 334 25,000  Level Anchorage Center
Sat 07:26:34 PM 59.0833 -160.3833 67° East 300 345 25,000  Level Anchorage Center
Sat 07:27:34 PM 59.1167 -160.2333 67° East 280 322 25,000  Level Anchorage Center
Sat 07:28:33 PM 59.1500 -160.1000 64° Northeast 290 334 25,000  Level Anchorage Center
Sat 07:29:34 PM 59.1833 -159.9500 66° East 280 322 25,000  Level Anchorage Center
Sat 07:30:34 PM 59.2167 -159.8000 66° East 290 334 25,000  Level Anchorage Center
Sat 07:31:34 PM 59.2500 -159.6667 64° Northeast 280 322 25,000  Level Anchorage Center
Sat 07:32:34 PM 59.2833 -159.5167 66° East 280 322 25,000  Level Anchorage Center
Sat 07:33:34 PM 59.3167 -159.3833 64° Northeast 280 322 25,000  Level Anchorage Center
Sat 07:34:34 PM 59.3667 -159.2333 57° Northeast 290 334 25,000  Level Anchorage Center
Sat 07:35:34 PM 59.4000 -159.0833 66° East 290 334 25,000  Level Anchorage Center
Sat 07:36:34 PM 59.4333 -158.9500 64° Northeast 280 322 25,000  Level Anchorage Center
Sat 07:37:34 PM 59.4500 -158.8000 78° East 280 322 25,000  Level Anchorage Center
Sat 07:38:35 PM 59.5000 -158.6667 54° Northeast 290 334 25,000  Level Anchorage Center
Sat 07:39:35 PM 59.5167 -158.5167 78° East 270 311 25,000  Level Anchorage Center
Sat 07:40:35 PM 59.5667 -158.4000 50° Northeast 290 334 25,000  Level Anchorage Center
Sat 07:41:35 PM 59.5833 -158.2667 76° East 260 299 25,000  Level Anchorage Center
Sat 07:42:35 PM 59.6167 -158.1167 66° East 280 322 25,000  Level Anchorage Center
Sat 07:43:35 PM 59.6500 -157.9833 64° Northeast 280 322 25,000  Level Anchorage Center
Sat 07:44:35 PM 59.6667 -157.8333 78° East 280 322 25,000  Level Anchorage Center
Sat 07:45:35 PM 59.7000 -157.7000 64° Northeast 260 299 25,000  Level Anchorage Center
Sat 07:46:35 PM 59.7333 -157.5500 66° East 280 322 25,000  Level Anchorage Center
Sat 07:47:35 PM 59.7667 -157.4167 64° Northeast 260 299 25,000  Level Anchorage Center
Sat 07:48:36 PM 59.8000 -157.2667 66° East 280 322 25,000  Level Anchorage Center
Sat 07:49:36 PM 59.8333 -157.1333 64° Northeast 270 311 25,000  Level Anchorage Center
Sat 07:50:36 PM 59.8500 -156.9833 77° East 280 322 25,000  Level Anchorage Center
Sat 07:51:36 PM 59.8833 -156.8333 66° East 290 334 25,000  Level Anchorage Center
Sat 07:52:36 PM 59.9167 -156.7000 63° Northeast 280 322 25,000  Level Anchorage Center
Sat 07:53:36 PM 59.9500 -156.5333 68° East 270 311 25,000  Level Anchorage Center
Sat 07:54:37 PM 59.9833 -156.3833 66° East 280 322 25,000  Level Anchorage Center
Sat 07:55:37 PM 60.0000 -156.2333 77° East 280 322 25,000  Level Anchorage Center
Sat 07:56:36 PM 60.0333 -156.1000 63° Northeast 270 311 25,000  Level Anchorage Center
Sat 07:57:37 PM 60.0667 -155.9500 66° East 280 322 25,000  Level Anchorage Center
Sat 07:58:37 PM 60.1000 -155.8167 63° Northeast 280 322 25,000  Level Anchorage Center
Sat 07:59:37 PM 60.1333 -155.6667 66° East 280 322 25,000  Level Anchorage Center
Sat 08:00:37 PM 60.1500 -155.5167 77° East 280 322 25,000  Level Anchorage Center
Sat 08:01:37 PM 60.1833 -155.3833 63° Northeast 280 322 25,000  Level Anchorage Center
Sat 08:02:37 PM 60.2000 -155.2333 77° East 270 311 25,000  Level Anchorage Center
Sat 08:03:38 PM 60.2333 -155.0833 66° East 280 322 25,000  Level Anchorage Center
Sat 08:04:37 PM 60.2667 -154.9500 63° Northeast 270 311 25,000  Level Anchorage Center
Sat 08:05:37 PM 60.2833 -154.8000 77° East 270 311 25,000  Level Anchorage Center
Sat 08:06:37 PM 60.3167 -154.6667 63° Northeast 280 322 25,000  Level Anchorage Center
Sat 08:07:38 PM 60.3500 -154.5167 66° East 270 311 25,000  Level Anchorage Center
Sat 08:08:38 PM 60.3667 -154.3667 77° East 270 311 25,000  Level Anchorage Center
Sat 08:09:38 PM 60.4000 -154.2167 66° East 280 322 25,000  Level Anchorage Center
Sat 08:10:38 PM 60.4333 -154.0833 63° Northeast 280 322 25,000  Level Anchorage Center
Sat 08:11:38 PM 60.4500 -153.9333 77° East 280 322 25,000  Level Anchorage Center
Sat 08:12:38 PM 60.4833 -153.7833 66° East 280 322 25,000  Level Anchorage Center
Sat 08:13:38 PM 60.5167 -153.6333 66° East 280 322 25,000  Level Anchorage Center
Sat 08:14:38 PM 60.5333 -153.4833 77° East 280 322 25,000  Level Anchorage Center
Sat 08:15:38 PM 60.5667 -153.3500 63° Northeast 270 311 25,000 50 Level Anchorage Center
Sat 08:16:39 PM 60.5833 -153.1667 79° East 290 334 25,100 50 Climbing Anchorage Center
Sat 08:17:38 PM 60.6167 -153.0500 60° Northeast 270 311 25,100  Level Anchorage Center
Sat 08:18:39 PM 60.6333 -152.8667 79° East 290 334 25,100  Level Anchorage Center
Sat 08:19:39 PM 60.6667 -152.7167 66° East 280 322 25,100 -550 Level Anchorage Center
Sat 08:20:39 PM 60.6833 -152.5667 77° East 280 322 24,000 -1,300 Descending Anchorage Center
Sat 08:21:39 PM 60.7167 -152.4167 66° East 290 334 22,500 -1,500 Descending Anchorage Center
Sat 08:22:39 PM 60.7333 -152.2500 78° East 280 322 21,000 -1,500 Descending Anchorage Center
Sat 08:23:39 PM 60.7667 -152.1000 65° Northeast 290 334 19,500 -1,550 Descending Anchorage Center
Sat 08:24:39 PM 60.7833 -151.9333 78° East 290 334 17,900 -1,600 Descending Anchorage Center
Sat 08:25:39 PM 60.8167 -151.7833 65° Northeast 280 322 16,300 -1,537 Descending Anchorage Center
Sat 08:26:40 PM 60.8333 -151.6333 77° East 280 322 14,800 -1,475 Descending Anchorage Center
Sat 08:28:00 PM 60.8742 -151.4501 73° East  Level FlightAware Approximate
Sat 08:35:00 PM 61.0588 -150.4736 55° Northeast  Level FlightAware Approximate
Sat 08:36:00 PM 61.0894 -150.3367 67° East  Level FlightAware Approximate
Sat 08:37:00 PM 61.1189 -150.1982 65° Northeast  Level FlightAware Approximate
Sat 08:38:00 PM 61.1495 -150.0606 65° Northeast  Level FlightAware Approximate
Sat 08:39:00 PM 61.1667 -149.9833 65° Northeast  Level FlightAware Approximate
Sat 08:40:00 PM 61.1741 -149.9982 65° Northeast  Level Estimated
Sat 08:41:00 PM 61.1741 -149.9982 65° Northeast  Level Estimated
Sat 08:42:00 PM 61.1741 -149.9982 65° Northeast  Level Estimated
Sat 08:43:00 PM 61.1741 -149.9982 65° Northeast  Level Estimated
Sat 08:44:00 PM 61.1741 -149.9982 65° Northeast  Level Estimated
Sat 08:45:00 PM 61.1741 -149.9982 65° Northeast  Level Estimated
Sat 08:46:00 PM 61.1741 -149.9982 65° Northeast  Level Estimated
Sat 08:47:00 PM 61.1741 -149.9982 65° Northeast  Level Estimated
Sat 08:48:00 PM 61.1741 -149.9982 65° Northeast  Level Estimated
Sat 08:49:00 PM 61.1741 -149.9982 65° Northeast  Level Estimated
Sat 08:50:00 PM 61.1741 -149.9982 65° Northeast  Level Estimated
Sat 08:51:00 PM 61.1741 -149.9982 65° Northeast  Level Estimated
Sat 08:52:00 PM 61.1741 -149.9982 65° Northeast  Level Estimated
Sat 08:53:00 PM 61.1741 -149.9982 65° Northeast  Level Estimated
Sat 08:54:00 PM 61.1741 -149.9982 65° Northeast  Level Estimated
Sat 08:55:00 PM 61.1741 -149.9982 65° Northeast  Level Estimated
Sat 08:56:00 PM 61.1741 -149.9982 65° Northeast  Level Estimated
Sat 08:57:00 PM 61.1741 -149.9982 65° Northeast  Level Estimated
Sat 08:58:00 PM 61.1741 -149.9982 65° Northeast  Level Estimated

Login

Don't have an account? Register now (free) for customized features, flight alerts, and more!